createdAt,value
2018-08-24T00:00:38.009Z,4.70
2018-08-24T00:02:41.664Z,4.43
2018-08-24T00:04:44.537Z,4.70
2018-08-24T00:06:47.416Z,4.90
2018-08-24T00:08:50.437Z,5.37
2018-08-24T00:10:54.241Z,4.13
2018-08-24T00:12:57.900Z,5.10
2018-08-24T00:15:00.801Z,6.10
2018-08-24T00:17:03.792Z,4.83
2018-08-24T00:19:07.576Z,5.07
2018-08-24T00:21:12.005Z,4.40
2018-08-24T00:23:15.021Z,4.83
2018-08-24T00:25:18.685Z,5.03
2018-08-24T00:27:21.660Z,4.53
2018-08-24T00:29:24.544Z,4.23
2018-08-24T00:31:27.416Z,4.63
2018-08-24T00:33:30.308Z,5.40
2018-08-24T00:35:33.205Z,4.70
2018-08-24T00:37:36.849Z,4.30
2018-08-24T00:39:39.716Z,4.50
2018-08-24T00:41:42.657Z,4.60
2018-08-24T00:43:45.548Z,4.40
2018-08-24T00:45:49.189Z,4.63
2018-08-24T00:47:52.108Z,5.00
2018-08-24T00:49:55.051Z,4.50
2018-08-24T00:51:57.985Z,4.13
2018-08-24T00:54:00.958Z,5.17
2018-08-24T00:56:03.937Z,5.20
2018-08-24T00:58:06.842Z,5.97
2018-08-24T01:00:10.493Z,5.37
2018-08-24T01:02:13.393Z,4.23
2018-08-24T01:04:16.286Z,4.60
2018-08-24T01:06:19.149Z,4.77
2018-08-24T01:08:22.021Z,5.63
2018-08-24T01:10:24.935Z,4.33
2018-08-24T01:12:28.585Z,4.50
2018-08-24T01:14:31.465Z,5.57
2018-08-24T01:16:34.461Z,4.77
2018-08-24T01:18:37.352Z,4.40
2018-08-24T01:20:40.268Z,4.27
2018-08-24T01:22:43.129Z,4.40
2018-08-24T01:24:46.052Z,4.03
2018-08-24T01:26:50.546Z,5.10
2018-08-24T01:28:53.556Z,4.63
2018-08-24T01:30:57.236Z,4.43
2018-08-24T01:33:00.174Z,4.37
2018-08-24T01:35:03.090Z,4.00
2018-08-24T01:37:06.030Z,4.60
2018-08-24T01:39:08.982Z,3.50
2018-08-24T01:41:12.650Z,4.57
2018-08-24T01:43:15.693Z,4.27
2018-08-24T01:45:18.607Z,4.30
2018-08-24T01:47:21.630Z,4.53
2018-08-24T01:49:25.348Z,4.37
2018-08-24T01:51:28.265Z,4.20
2018-08-24T01:53:31.195Z,4.73
2018-08-24T01:55:34.922Z,4.10
2018-08-24T01:57:37.829Z,4.57
2018-08-24T01:59:40.869Z,5.37
2018-08-24T02:01:44.602Z,4.43
2018-08-24T02:03:47.543Z,4.13
2018-08-24T02:05:51.229Z,3.80
2018-08-24T02:07:54.954Z,4.20
2018-08-24T02:09:57.882Z,3.63
2018-08-24T02:12:00.915Z,4.57
2018-08-24T02:14:10.663Z,4.03
2018-08-24T02:16:13.578Z,4.47
2018-08-24T02:18:16.513Z,4.00
2018-08-24T02:20:20.226Z,4.20
2018-08-24T02:22:23.299Z,4.63
2018-08-24T02:24:27.102Z,4.67
2018-08-24T02:26:30.779Z,4.37
2018-08-24T02:28:33.700Z,4.07
2018-08-24T02:30:36.685Z,4.50
2018-08-24T02:32:39.599Z,3.70
2018-08-24T02:34:42.631Z,4.20
2018-08-24T02:36:46.433Z,4.10
2018-08-24T02:38:50.106Z,4.63
2018-08-24T02:40:53.025Z,4.30
2018-08-24T02:42:56.102Z,4.90
2018-08-24T02:44:59.812Z,3.70
2018-08-24T02:47:02.822Z,4.73
2018-08-24T02:49:05.746Z,4.20
2018-08-24T02:51:09.438Z,4.40
2018-08-24T02:53:12.397Z,4.50
2018-08-24T02:55:16.846Z,5.00
2018-08-24T02:57:19.766Z,3.90
2018-08-24T02:59:22.727Z,5.13
2018-08-24T03:01:25.714Z,4.57
2018-08-24T03:03:28.641Z,4.93
2018-08-24T03:05:31.998Z,4.50
2018-08-24T03:07:34.759Z,4.50
2018-08-24T03:09:38.433Z,4.57
2018-08-24T03:11:41.395Z,5.00
2018-08-24T03:13:44.305Z,4.87
2018-08-24T03:15:47.226Z,4.70
2018-08-24T03:17:50.170Z,4.70
2018-08-24T03:19:53.862Z,4.80
2018-08-24T03:21:56.826Z,5.47
2018-08-24T03:23:59.751Z,5.37
2018-08-24T03:26:03.433Z,4.57
2018-08-24T03:28:07.273Z,4.33
2018-08-24T03:30:10.202Z,4.77
2018-08-24T03:32:13.222Z,4.20
2018-08-24T03:34:16.957Z,4.60
2018-08-24T03:36:19.872Z,4.70
2018-08-24T03:38:22.889Z,4.33
2018-08-24T03:40:26.701Z,4.20
2018-08-24T03:42:30.493Z,4.23
2018-08-24T03:44:34.179Z,4.10
2018-08-24T03:46:37.290Z,5.20
2018-08-24T03:48:40.209Z,4.50
2018-08-24T03:50:43.135Z,5.40
2018-08-24T03:52:46.994Z,5.07
2018-08-24T03:54:49.877Z,5.90
2018-08-24T03:56:52.815Z,5.90
2018-08-24T03:58:56.498Z,5.07
2018-08-24T04:01:00.177Z,4.70
2018-08-24T04:03:03.126Z,5.40
2018-08-24T04:05:06.038Z,5.07
2018-08-24T04:07:08.951Z,4.83
2018-08-24T04:09:12.646Z,5.60
2018-08-24T04:11:16.353Z,4.40
2018-08-24T04:13:20.027Z,5.13
2018-08-24T04:15:22.990Z,6.83
2018-08-24T04:17:26.018Z,5.33
2018-08-24T04:19:29.772Z,5.03
2018-08-24T04:21:34.171Z,5.57
2018-08-24T04:23:37.089Z,4.57
2018-08-24T04:25:40.104Z,5.57
2018-08-24T04:27:43.803Z,5.30
2018-08-24T04:29:47.492Z,5.30
2018-08-24T04:31:51.316Z,4.97
2018-08-24T04:33:54.241Z,5.17
2018-08-24T04:35:57.186Z,5.50
2018-08-24T04:38:00.285Z,5.50
2018-08-24T04:40:03.202Z,5.13
2018-08-24T04:42:06.216Z,5.50
2018-08-24T04:44:09.936Z,5.77
2018-08-24T04:46:12.862Z,4.47
2018-08-24T04:48:15.882Z,5.53
2018-08-24T04:50:19.618Z,5.13
2018-08-24T04:52:22.851Z,5.40
2018-08-24T04:54:26.692Z,4.97
2018-08-24T04:56:29.634Z,5.20
2018-08-24T04:58:32.557Z,4.87
2018-08-24T05:00:35.523Z,4.80
2018-08-24T05:02:39.241Z,5.00
2018-08-24T05:04:42.161Z,5.17
2018-08-24T05:06:45.102Z,4.60
2018-08-24T05:08:48.022Z,5.00
2018-08-24T05:10:50.950Z,6.20
2018-08-24T05:12:54.671Z,5.00
2018-08-24T05:14:57.593Z,5.47
2018-08-24T05:17:00.527Z,4.73
2018-08-24T05:19:03.614Z,4.60
2018-08-24T05:21:07.417Z,4.93
2018-08-24T05:23:11.081Z,4.53
2018-08-24T05:25:14.046Z,5.20
2018-08-24T05:27:17.072Z,5.27
2018-08-24T05:29:20.882Z,4.20
2018-08-24T05:31:23.805Z,4.63
2018-08-24T05:33:26.835Z,5.27
2018-08-24T05:35:29.853Z,4.97
2018-08-24T05:37:33.102Z,5.43
2018-08-24T05:39:36.781Z,5.70
2018-08-24T05:41:39.753Z,4.47
2018-08-24T05:43:42.754Z,5.27
2018-08-24T05:45:45.670Z,5.77
2018-08-24T05:47:48.617Z,5.20
2018-08-24T05:49:51.538Z,5.20
2018-08-24T05:51:54.462Z,5.80
2018-08-24T05:53:57.589Z,4.53
2018-08-24T05:56:01.262Z,4.60
2018-08-24T05:58:15.229Z,5.60
2018-08-24T06:02:44.675Z,5.60
2018-08-24T06:04:47.579Z,5.23
2018-08-24T06:06:50.612Z,6.13
2018-08-24T06:08:54.419Z,5.60
2018-08-24T06:10:57.498Z,6.03
2018-08-24T06:13:00.494Z,4.97
2018-08-24T06:15:03.603Z,5.93
2018-08-24T06:17:06.558Z,4.93
2018-08-24T06:19:10.353Z,5.30
2018-08-24T06:21:14.065Z,5.00
2018-08-24T06:23:17.136Z,4.30
2018-08-24T06:25:20.073Z,4.73
2018-08-24T06:27:23.026Z,4.70
2018-08-24T06:29:25.962Z,4.00
2018-08-24T06:31:28.966Z,3.93
2018-08-24T06:33:32.798Z,3.77
2018-08-24T06:35:35.841Z,3.83
2018-08-24T06:37:39.553Z,3.20
2018-08-24T06:39:43.355Z,2.80
2018-08-24T06:41:47.180Z,2.33
2018-08-24T06:43:50.094Z,2.40
2018-08-24T06:45:53.057Z,1.90
2018-08-24T06:47:56.003Z,1.70
2018-08-24T06:49:59.681Z,2.00
2018-08-24T06:52:02.806Z,2.20
2018-08-24T06:54:05.832Z,2.00
2018-08-24T06:56:08.762Z,2.00
2018-08-24T06:58:12.470Z,1.77
2018-08-24T07:00:15.381Z,1.47
2018-08-24T07:02:18.312Z,1.70
2018-08-24T07:04:22.019Z,1.30
2018-08-24T07:06:25.702Z,1.33
2018-08-24T07:08:29.400Z,1.27
2018-08-24T07:10:33.235Z,1.60
2018-08-24T07:12:36.158Z,1.27
2018-08-24T07:14:39.190Z,1.33
2018-08-24T07:16:42.156Z,1.30
2018-08-24T07:18:45.848Z,1.50
2018-08-24T07:20:48.765Z,1.40
2018-08-24T07:22:51.734Z,1.17
2018-08-24T07:24:55.418Z,1.20
2018-08-24T07:26:59.122Z,1.20
2018-08-24T07:29:02.850Z,1.43
2018-08-24T07:31:05.930Z,1.13
2018-08-24T07:33:09.698Z,1.40
2018-08-24T07:35:12.818Z,1.00
2018-08-24T07:37:15.738Z,1.03
2018-08-24T07:39:18.775Z,0.97
2018-08-24T07:41:22.532Z,1.00
2018-08-24T07:43:25.433Z,1.20
2018-08-24T07:45:28.365Z,1.13
2018-08-24T07:47:31.433Z,1.20
2018-08-24T07:49:34.360Z,1.07
2018-08-24T07:51:37.391Z,1.00
2018-08-24T07:53:41.102Z,1.00
2018-08-24T07:55:44.022Z,1.07
2018-08-24T07:57:46.970Z,1.23
2018-08-24T07:59:50.770Z,1.40
2018-08-24T08:01:53.682Z,1.20
2018-08-24T08:03:56.606Z,1.20
2018-08-24T08:06:00.338Z,1.10
2018-08-24T08:08:04.337Z,0.90
2018-08-24T08:10:07.322Z,1.13
2018-08-24T08:12:10.314Z,1.07
2018-08-24T08:14:13.238Z,1.20
2018-08-24T08:16:16.965Z,1.40
2018-08-24T08:18:20.005Z,1.13
2018-08-24T08:20:22.942Z,1.27
2018-08-24T08:22:26.617Z,1.23
2018-08-24T08:24:29.759Z,1.10
2018-08-24T08:26:32.666Z,1.10
2018-08-24T08:28:35.691Z,1.20
2018-08-24T08:30:39.597Z,1.20
2018-08-24T08:32:43.310Z,1.60
2018-08-24T08:34:47.175Z,1.17
2018-08-24T08:36:50.298Z,1.60
2018-08-24T08:38:53.288Z,1.20
2018-08-24T08:40:56.933Z,1.30
2018-08-24T08:42:59.893Z,1.23
2018-08-24T08:45:02.802Z,1.30
2018-08-24T08:47:05.731Z,1.30
2018-08-24T08:49:08.677Z,1.70
2018-08-24T08:51:12.391Z,1.33
2018-08-24T08:53:16.099Z,1.13
2018-08-24T08:55:19.811Z,1.40
2018-08-24T08:57:22.726Z,1.20
2018-08-24T08:59:25.764Z,1.67
2018-08-24T09:01:29.602Z,1.50
2018-08-24T09:03:32.518Z,2.20
2018-08-24T09:05:35.429Z,2.00
2018-08-24T09:07:39.141Z,2.73
2018-08-24T09:09:42.124Z,2.97
2018-08-24T09:11:45.043Z,3.37
2018-08-24T09:13:48.005Z,5.07
2018-08-24T09:15:50.927Z,4.80
2018-08-24T09:17:53.850Z,3.93
2018-08-24T09:20:02.597Z,5.63
2018-08-24T09:22:22.266Z,5.03
2018-08-24T09:24:40.902Z,5.63
2018-08-24T09:26:58.930Z,5.23
2018-08-24T09:29:01.889Z,5.93
2018-08-24T09:31:04.819Z,5.00
2018-08-24T09:33:08.602Z,5.20
2018-08-24T09:35:11.535Z,4.80
2018-08-24T09:37:15.411Z,4.00
2018-08-24T09:39:18.366Z,3.90
2018-08-24T09:41:21.287Z,4.10
2018-08-24T09:43:24.212Z,4.70
2018-08-24T09:45:28.015Z,5.20
2018-08-24T09:47:31.857Z,4.60
2018-08-24T09:49:34.784Z,5.50
2018-08-24T09:51:38.606Z,5.37
2018-08-24T09:53:41.562Z,6.40
2018-08-24T09:55:44.485Z,6.00
2018-08-24T09:57:47.568Z,5.97
2018-08-24T09:59:50.492Z,6.10
2018-08-24T10:02:08.302Z,5.53
2018-08-24T10:04:17.713Z,6.63
2018-08-24T10:06:26.364Z,5.80
2018-08-24T10:08:29.399Z,5.63
2018-08-24T10:10:33.220Z,6.80
2018-08-24T10:12:36.165Z,6.60
2018-08-24T10:14:39.082Z,6.00
2018-08-24T10:16:42.071Z,6.07
2018-08-24T10:18:44.988Z,5.30
2018-08-24T10:20:47.923Z,6.03
2018-08-24T10:22:50.901Z,5.73
2018-08-24T10:24:55.029Z,6.27
2018-08-24T10:26:57.949Z,6.40
2018-08-24T10:29:00.902Z,6.50
2018-08-24T10:31:03.836Z,7.43
2018-08-24T10:33:07.529Z,5.93
2018-08-24T10:35:11.982Z,5.73
2018-08-24T10:37:14.908Z,5.13
2018-08-24T10:39:17.844Z,5.40
2018-08-24T10:41:21.573Z,4.90
2018-08-24T10:43:25.334Z,5.10
2018-08-24T10:45:29.010Z,4.90
2018-08-24T10:47:31.969Z,5.60
2018-08-24T10:49:35.102Z,5.30
2018-08-24T10:51:38.001Z,4.80
2018-08-24T10:53:40.965Z,4.73
2018-08-24T10:55:44.752Z,4.53
2018-08-24T10:57:48.350Z,4.10
2018-08-24T10:59:51.729Z,4.13
2018-08-24T11:01:54.728Z,4.17
2018-08-24T11:03:57.729Z,4.80
2018-08-24T11:06:01.456Z,4.00
2018-08-24T11:08:04.374Z,3.60
2018-08-24T11:10:07.392Z,3.80
2018-08-24T11:12:11.120Z,4.33
2018-08-24T11:14:14.086Z,3.63
2018-08-24T11:16:17.877Z,4.10
2018-08-24T11:18:21.711Z,4.00
2018-08-24T11:20:24.640Z,4.13
2018-08-24T11:22:28.334Z,4.00
2018-08-24T11:24:31.343Z,4.80
2018-08-24T11:26:35.072Z,4.43
2018-08-24T11:28:38.015Z,4.70
2018-08-24T11:30:41.977Z,4.70
2018-08-24T11:32:44.910Z,4.60
2018-08-24T11:34:48.952Z,3.70
2018-08-24T11:36:52.009Z,4.70
2018-08-24T11:38:55.809Z,4.00
2018-08-24T11:40:58.978Z,5.17
2018-08-24T11:43:02.841Z,5.10
2018-08-24T11:45:07.827Z,4.77
2018-08-24T11:47:11.754Z,4.60
2018-08-24T11:49:14.760Z,5.30
2018-08-24T11:51:18.620Z,4.40
2018-08-24T11:53:22.298Z,4.60
2018-08-24T11:55:25.921Z,4.50
2018-08-24T11:57:29.111Z,5.07
2018-08-24T11:59:32.296Z,4.00
2018-08-24T12:01:36.097Z,3.83
2018-08-24T12:03:39.182Z,4.90
2018-08-24T12:05:42.870Z,5.57
2018-08-24T12:07:46.770Z,4.77
2018-08-24T12:09:49.645Z,5.87
2018-08-24T12:11:53.346Z,4.90
2018-08-24T12:13:57.277Z,4.97
2018-08-24T12:16:00.184Z,5.47
2018-08-24T12:18:03.102Z,4.40
2018-08-24T12:20:06.134Z,4.70
2018-08-24T12:22:09.086Z,5.70
2018-08-24T12:24:12.804Z,5.40
2018-08-24T12:26:16.760Z,5.10
2018-08-24T12:28:19.799Z,5.47
2018-08-24T12:30:23.493Z,4.70
2018-08-24T12:32:27.211Z,4.43
2018-08-24T12:34:30.142Z,4.23
2018-08-24T12:36:33.158Z,5.03
2018-08-24T12:38:36.886Z,5.37
2018-08-24T12:40:39.818Z,5.17
2018-08-24T12:42:44.375Z,4.90
2018-08-24T12:44:47.449Z,5.30
2018-08-24T12:46:51.249Z,4.67
2018-08-24T12:48:55.678Z,5.87
2018-08-24T12:50:58.750Z,5.77
2018-08-24T12:53:02.553Z,4.10
2018-08-24T12:55:06.230Z,5.07
2018-08-24T12:57:09.297Z,5.10
2018-08-24T12:59:12.239Z,4.70
2018-08-24T13:01:15.208Z,4.80
2018-08-24T13:03:18.153Z,4.07
2018-08-24T13:05:21.079Z,4.67
2018-08-24T13:07:24.011Z,4.63
2018-08-24T13:09:26.971Z,4.90
2018-08-24T13:11:29.890Z,5.30
2018-08-24T13:13:32.894Z,4.70
2018-08-24T13:15:36.646Z,5.33
2018-08-24T13:17:39.567Z,4.83
2018-08-24T13:19:42.509Z,5.20
2018-08-24T13:21:45.561Z,4.30
2018-08-24T13:23:48.485Z,4.20
2018-08-24T13:25:51.512Z,5.00
2018-08-24T13:27:54.710Z,5.83
2018-08-24T13:29:57.650Z,5.63
2018-08-24T13:32:02.127Z,5.50
2018-08-24T13:34:05.102Z,5.37
2018-08-24T13:36:08.398Z,4.30
2018-08-24T13:38:11.318Z,5.00
2018-08-24T13:40:14.539Z,4.80
2018-08-24T13:42:18.302Z,4.53
2018-08-24T13:44:21.228Z,4.83
2018-08-24T13:46:24.938Z,4.87
2018-08-24T13:48:28.726Z,4.90
2018-08-24T13:50:32.531Z,4.97
2018-08-24T13:52:36.350Z,4.80
2018-08-24T13:54:39.344Z,3.90
2018-08-24T13:56:42.990Z,4.30
2018-08-24T13:58:46.726Z,3.80
2018-08-24T14:00:49.697Z,4.37
2018-08-24T14:02:53.374Z,4.13
2018-08-24T14:04:57.166Z,5.07
2018-08-24T14:07:00.110Z,4.67
2018-08-24T14:09:03.026Z,4.83
2018-08-24T14:11:06.002Z,4.57
2018-08-24T14:13:09.040Z,4.23
2018-08-24T14:15:12.810Z,4.40
2018-08-24T14:17:15.813Z,4.30
2018-08-24T14:19:19.620Z,3.80
2018-08-24T14:21:23.330Z,4.70
2018-08-24T14:23:26.402Z,3.50
2018-08-24T14:25:29.349Z,3.73
2018-08-24T14:27:32.278Z,4.57
2018-08-24T14:29:35.246Z,4.30
2018-08-24T14:31:40.742Z,3.53
2018-08-24T14:33:43.642Z,2.90
2018-08-24T14:35:46.604Z,3.60
2018-08-24T14:37:49.639Z,3.13
2018-08-24T14:39:54.977Z,2.70
2018-08-24T14:41:58.736Z,2.80
2018-08-24T14:44:01.666Z,3.70
2018-08-24T14:46:06.234Z,2.57
2018-08-24T14:48:09.231Z,3.40
2018-08-24T14:50:12.126Z,2.87
2018-08-24T14:52:15.038Z,2.50
2018-08-24T14:54:18.146Z,2.20
2018-08-24T14:56:21.060Z,2.53
2018-08-24T14:58:23.994Z,2.33
2018-08-24T15:00:27.030Z,2.40
2018-08-24T15:02:29.955Z,2.67
2018-08-24T15:04:32.962Z,2.93
2018-08-24T15:06:36.714Z,2.90
2018-08-24T15:08:39.639Z,4.90
2018-08-24T15:10:42.555Z,4.00
2018-08-24T15:12:47.031Z,3.50
2018-08-24T15:14:49.957Z,3.33
2018-08-24T15:16:53.035Z,4.17
2018-08-24T15:18:55.956Z,3.90
2018-08-24T15:20:59.638Z,3.23
2018-08-24T15:23:03.362Z,2.87
2018-08-24T15:25:07.134Z,2.80
2018-08-24T15:27:10.151Z,2.93
2018-08-24T15:29:13.826Z,2.60
2018-08-24T15:31:17.862Z,2.60
2018-08-24T15:33:20.828Z,2.93
2018-08-24T15:35:24.510Z,3.20
2018-08-24T15:37:27.730Z,2.70
2018-08-24T15:39:30.658Z,3.60
2018-08-24T15:41:33.685Z,2.97
2018-08-24T15:43:37.406Z,3.27
2018-08-24T15:45:40.351Z,3.70
2018-08-24T15:47:43.267Z,3.07
2018-08-24T15:49:46.231Z,3.07
2018-08-24T15:51:49.929Z,3.23
2018-08-24T15:53:53.612Z,3.10
2018-08-24T15:55:57.432Z,3.90
2018-08-24T15:58:01.105Z,4.73
2018-08-24T16:00:04.046Z,3.10
2018-08-24T16:02:07.035Z,3.00
2018-08-24T16:04:09.955Z,3.60
2018-08-24T16:06:14.418Z,3.50
2018-08-24T16:08:17.806Z,4.00
2018-08-24T16:10:20.873Z,3.80
2018-08-24T16:12:24.618Z,4.10
2018-08-24T16:14:27.534Z,3.40
2018-08-24T16:16:32.078Z,4.10
2018-08-24T16:18:35.876Z,3.70
2018-08-24T16:20:39.590Z,3.83
2018-08-24T16:22:42.526Z,4.00
2018-08-24T16:24:45.474Z,3.50
2018-08-24T16:26:49.280Z,3.70
2018-08-24T16:28:52.249Z,3.30
2018-08-24T16:30:55.167Z,3.17
2018-08-24T16:32:58.126Z,3.40
2018-08-24T16:35:01.073Z,3.87
2018-08-24T16:37:04.776Z,3.87
2018-08-24T16:39:08.576Z,3.80
2018-08-24T16:41:12.380Z,3.47
2018-08-24T16:43:16.179Z,3.30
2018-08-24T16:45:19.985Z,3.60
2018-08-24T16:47:23.666Z,3.80
2018-08-24T16:49:26.577Z,4.30
2018-08-24T16:51:29.563Z,3.50
2018-08-24T16:53:32.485Z,3.00
2018-08-24T16:55:35.511Z,3.60
2018-08-24T16:57:39.326Z,3.53
2018-08-24T16:59:42.250Z,3.10
2018-08-24T17:01:45.179Z,3.30
2018-08-24T17:03:48.956Z,3.30
2018-08-24T17:05:51.835Z,3.90
2018-08-24T17:07:56.314Z,3.37
2018-08-24T17:09:59.282Z,3.43
2018-08-24T17:12:02.271Z,2.73
2018-08-24T17:14:05.285Z,3.53
2018-08-24T17:16:08.335Z,3.30
2018-08-24T17:18:11.503Z,3.50
2018-08-24T17:20:15.302Z,3.50
2018-08-24T17:22:19.226Z,3.47
2018-08-24T17:24:22.501Z,3.40
2018-08-24T17:26:25.806Z,2.80
2018-08-24T17:28:29.013Z,3.47
2018-08-24T17:30:32.060Z,3.27
2018-08-24T17:32:35.145Z,3.57
2018-08-24T17:34:38.460Z,3.67
2018-08-24T17:36:41.386Z,5.23
2018-08-24T17:38:44.523Z,3.20
2018-08-24T17:40:47.982Z,3.70
2018-08-24T17:42:51.954Z,3.67
2018-08-24T17:44:55.098Z,3.60
2018-08-24T17:46:58.897Z,3.60
2018-08-24T17:49:03.018Z,3.10
2018-08-24T17:51:06.150Z,3.70
2018-08-24T17:53:09.891Z,3.37
2018-08-24T17:55:12.978Z,3.37
2018-08-24T17:57:16.164Z,2.93
2018-08-24T17:59:20.450Z,3.57
2018-08-24T18:01:23.840Z,3.20
2018-08-24T18:03:26.866Z,2.90
2018-08-24T18:05:30.047Z,3.67
2018-08-24T18:07:33.745Z,3.17
2018-08-24T18:09:37.644Z,2.83
2018-08-24T18:11:41.762Z,3.20
2018-08-24T18:13:45.148Z,3.37
2018-08-24T18:15:48.527Z,3.20
2018-08-24T18:17:51.486Z,3.13
2018-08-24T18:19:55.086Z,3.63
2018-08-24T18:21:58.309Z,3.20
2018-08-24T18:24:02.625Z,3.10
2018-08-24T18:26:05.828Z,3.50
2018-08-24T18:28:08.751Z,3.80
2018-08-24T18:30:11.948Z,3.57
2018-08-24T18:32:17.064Z,3.30
2018-08-24T18:34:20.878Z,3.27
2018-08-24T18:36:24.824Z,2.80
2018-08-24T18:38:28.828Z,3.87
2018-08-24T18:40:31.829Z,3.30
2018-08-24T18:42:34.985Z,3.80
2018-08-24T18:44:37.894Z,3.77
2018-08-24T18:46:41.253Z,3.77
2018-08-24T18:48:44.561Z,3.33
2018-08-24T18:50:48.731Z,2.97
2018-08-24T18:52:51.880Z,3.53
2018-08-24T18:54:55.052Z,3.40
2018-08-24T18:56:58.133Z,3.30
2018-08-24T18:59:01.530Z,2.70
2018-08-24T19:01:05.275Z,3.00
2018-08-24T19:03:08.486Z,2.87
2018-08-24T19:05:11.606Z,3.07
2018-08-24T19:07:14.551Z,2.60
2018-08-24T19:09:17.499Z,3.33
2018-08-24T19:11:20.554Z,3.10
2018-08-24T19:13:24.356Z,3.00
2018-08-24T19:15:28.156Z,3.50
2018-08-24T19:17:31.840Z,4.10
2018-08-24T19:19:50.562Z,3.40
2018-08-24T19:21:53.591Z,2.70
2018-08-24T19:23:57.390Z,3.03
2018-08-24T19:26:01.098Z,3.10
2018-08-24T19:28:04.078Z,2.60
2018-08-24T19:30:25.670Z,3.70
2018-08-24T19:32:30.348Z,2.53
2018-08-24T19:34:33.367Z,2.20
2018-08-24T19:36:36.369Z,2.27
2018-08-24T19:38:40.397Z,2.77
2018-08-24T19:40:43.480Z,2.30
2018-08-24T19:42:47.158Z,2.93
2018-08-24T19:44:50.855Z,2.83
2018-08-24T19:46:53.814Z,2.10
2018-08-24T19:49:11.627Z,1.97
2018-08-24T19:51:14.551Z,2.03
2018-08-24T19:53:17.496Z,2.27
2018-08-24T19:55:20.506Z,2.30
2018-08-24T19:57:23.433Z,2.40
2018-08-24T19:59:26.393Z,2.20
2018-08-24T20:01:30.129Z,2.20
2018-08-24T20:03:33.054Z,2.47
2018-08-24T20:05:36.016Z,2.87
2018-08-24T20:07:53.803Z,1.73
2018-08-24T20:10:02.106Z,2.50
2018-08-24T20:12:05.908Z,2.30
2018-08-24T20:14:09.709Z,2.07
2018-08-24T20:16:32.356Z,2.50
2018-08-24T20:18:36.093Z,2.47
2018-08-24T20:20:39.139Z,2.05
2018-08-24T20:22:42.943Z,2.33
2018-08-24T20:24:45.967Z,2.60
2018-08-24T20:26:48.905Z,2.40
2018-08-24T20:28:52.600Z,2.20
2018-08-24T20:30:56.427Z,2.10
2018-08-24T20:32:59.365Z,2.30
2018-08-24T20:35:02.377Z,2.90
2018-08-24T20:37:06.098Z,2.20
2018-08-24T20:39:09.008Z,2.10
2018-08-24T20:41:11.922Z,2.60
2018-08-24T20:43:15.655Z,1.77
2018-08-24T20:45:18.583Z,2.30
2018-08-24T20:47:21.617Z,2.80
2018-08-24T20:49:24.577Z,2.20
2018-08-24T20:51:28.254Z,2.17
2018-08-24T20:53:32.808Z,2.30
2018-08-24T20:55:36.576Z,2.30
2018-08-24T20:57:39.593Z,2.57
2018-08-24T20:59:43.273Z,2.50
2018-08-24T21:01:46.294Z,2.50
2018-08-24T21:03:49.218Z,2.87
2018-08-24T21:05:52.248Z,2.20
2018-08-24T21:07:55.243Z,3.10
2018-08-24T21:09:58.157Z,2.10
2018-08-24T21:12:01.096Z,2.60
2018-08-24T21:14:05.006Z,2.30
2018-08-24T21:16:07.962Z,2.40
2018-08-24T21:18:11.658Z,2.10
2018-08-24T21:20:15.479Z,1.67
2018-08-24T21:22:19.162Z,2.40
2018-08-24T21:24:22.869Z,2.17
2018-08-24T21:26:26.783Z,2.40
2018-08-24T21:28:30.468Z,2.43
2018-08-24T21:30:33.382Z,2.27
2018-08-24T21:32:36.341Z,2.37
2018-08-24T21:34:40.023Z,2.27
2018-08-24T21:36:42.938Z,2.50
2018-08-24T21:38:45.890Z,2.47
2018-08-24T21:40:50.333Z,2.50
2018-08-24T21:42:54.013Z,2.23
2018-08-24T21:44:57.038Z,1.83
2018-08-24T21:46:59.959Z,2.30
2018-08-24T21:49:02.876Z,2.20
2018-08-24T21:51:06.613Z,2.70
2018-08-24T21:53:09.526Z,1.80
2018-08-24T21:55:12.459Z,2.30
2018-08-24T21:57:15.559Z,2.00
2018-08-24T21:59:18.470Z,2.40
2018-08-24T22:01:21.510Z,2.40
2018-08-24T22:03:25.496Z,2.77
2018-08-24T22:05:29.195Z,2.70
2018-08-24T22:07:32.878Z,1.90
2018-08-24T22:09:36.493Z,2.00
2018-08-24T22:11:40.172Z,1.90
2018-08-24T22:13:44.612Z,1.60
2018-08-24T22:15:48.531Z,1.90
2018-08-24T22:17:52.316Z,2.20
2018-08-24T22:19:55.994Z,2.00
2018-08-24T22:22:00.638Z,2.40
2018-08-24T22:24:03.632Z,2.90
2018-08-24T22:26:06.555Z,2.00
2018-08-24T22:28:09.614Z,1.53
2018-08-24T22:30:12.542Z,2.10
2018-08-24T22:32:16.237Z,1.80
2018-08-24T22:34:20.801Z,2.00
2018-08-24T22:36:23.720Z,1.90
2018-08-24T22:38:26.756Z,1.70
2018-08-24T22:40:30.470Z,1.63
2018-08-24T22:42:33.393Z,1.80
2018-08-24T22:44:36.310Z,2.33
2018-08-24T22:46:40.030Z,2.07
2018-08-24T22:48:42.957Z,1.83
2018-08-24T22:50:45.897Z,2.20
2018-08-24T22:52:48.990Z,1.80
2018-08-24T22:54:51.925Z,2.00
2018-08-24T22:56:54.849Z,2.00
2018-08-24T22:58:57.916Z,2.13
2018-08-24T23:01:01.594Z,1.70
2018-08-24T23:03:05.285Z,2.10
2018-08-24T23:05:08.337Z,2.00
2018-08-24T23:07:11.282Z,2.33
2018-08-24T23:09:14.987Z,1.80
2018-08-24T23:11:18.705Z,1.67
2018-08-24T23:13:21.633Z,1.90
2018-08-24T23:15:24.648Z,1.80
2018-08-24T23:17:28.366Z,2.60
2018-08-24T23:19:31.337Z,2.10
2018-08-24T23:21:35.747Z,1.97
2018-08-24T23:23:39.574Z,1.93
2018-08-24T23:25:42.502Z,1.90
2018-08-24T23:27:46.930Z,3.23
2018-08-24T23:29:49.905Z,2.00
2018-08-24T23:31:52.830Z,2.17
2018-08-24T23:33:55.773Z,1.60
2018-08-24T23:35:59.527Z,2.20
2018-08-24T23:38:02.465Z,2.00
2018-08-24T23:40:05.378Z,1.80
2018-08-24T23:42:08.470Z,2.03
2018-08-24T23:44:11.394Z,2.20
2018-08-24T23:46:14.414Z,1.80
2018-08-24T23:48:18.167Z,2.00
2018-08-24T23:50:21.197Z,2.33
2018-08-24T23:52:24.282Z,2.07
2018-08-24T23:54:27.999Z,2.00
2018-08-24T23:56:30.948Z,1.90
2018-08-24T23:58:33.869Z,2.00
